sensor_id;sensor_type;location;lat;lon;timestamp;pressure;altitude;pressure_sealevel;temperature;humidity
17950;BME280;9100;48.700;9.316;2024-03-02T00:00:29;96544.3;;;7.45;100
17950;BME280;9100;48.700;9.316;2024-03-02T00:01:29;96542.8;;;7.44;100
17950;BME280;9100;48.700;9.316;2024-03-02T00:02:29;96542;;;7.44;100
17950;BME280;9100;48.700;9.316;2024-03-02T00:03:29;96545.5;;;7.43;100
17950;BME280;9100;48.700;9.316;2024-03-02T00:03:36;96547.1;;;7.44;100
17950;BME280;9100;48.700;9.316;2024-03-02T00:04:29;96539.59999999999;;;7.42;100
17950;BME280;9100;48.700;9.316;2024-03-02T00:05:29;96538;;;7.41;100
17950;BME280;9100;48.700;9.316;2024-03-02T00:06:29;96539;;;7.4;100
17950;BME280;9100;48.700;9.316;2024-03-02T00:07:29;96534.90000000001;;;7.39;100
17950;BME280;9100;48.700;9.316;2024-03-02T00:08:30;96534.3;;;7.37;100
17950;BME280;9100;48.700;9.316;2024-03-02T00:08:36;96536.8;;;7.37;100
17950;BME280;9100;48.700;9.316;2024-03-02T00:09:29;96541.9;;;7.37;100
17950;BME280;9100;48.700;9.316;2024-03-02T00:10:30;96537.59999999999;;;7.38;100
17950;BME280;9100;48.700;9.316;2024-03-02T00:11:29;96535.90000000001;;;7.38;100
17950;BME280;9100;48.700;9.316;2024-03-02T00:12:29;96537.59999999999;;;7.38;100
17950;BME280;9100;48.700;9.316;2024-03-02T00:13:29;96536.8;;;7.37;100
17950;BME280;9100;48.700;9.316;2024-03-02T00:13:36;96536.8;;;7.37;100
17950;BME280;9100;48.700;9.316;2024-03-02T00:14:29;96540.20000000001;;;7.38;100
17950;BME280;9100;48.700;9.316;2024-03-02T00:15:40;96543.5;;;7.38;100
17950;BME280;9100;48.700;9.316;2024-03-02T00:16:29;96538.4;;;7.38;100
17950;BME280;9100;48.700;9.316;2024-03-02T00:17:29;96543.5;;;7.38;100
17950;BME280;9100;48.700;9.316;2024-03-02T00:18:30;96542.7;;;7.38;100
17950;BME280;9100;48.700;9.316;2024-03-02T00:18:36;96545.3;;;7.38;100
17950;BME280;9100;48.700;9.316;2024-03-02T00:19:29;96542.7;;;7.38;100
17950;BME280;9100;48.700;9.316;2024-03-02T00:20:29;96546.8;;;7.39;100
17950;BME280;9100;48.700;9.316;2024-03-02T00:21:29;96548.40000000001;;;7.4;100
17950;BME280;9100;48.700;9.316;2024-03-02T00:22:29;96545.9;;;7.4;100
17950;BME280;9100;48.700;9.316;2024-03-02T00:23:30;96545.9;;;7.4;100
17950;BME280;9100;48.700;9.316;2024-03-02T00:23:36;96545.9;;;7.4;100
17950;BME280;9100;48.700;9.316;2024-03-02T00:24:31;96546.7;;;7.4;100
17950;BME280;9100;48.700;9.316;2024-03-02T00:25:34;96553.5;;;7.4;100
17950;BME280;9100;48.700;9.316;2024-03-02T00:26:29;96555.2;;;7.39;100
17950;BME280;9100;48.700;9.316;2024-03-02T00:27:29;96561.90000000001;;;7.4;100
17950;BME280;9100;48.700;9.316;2024-03-02T00:28:29;96554.6;;;7.37;100
17950;BME280;9100;48.700;9.316;2024-03-02T00:28:36;96558;;;7.38;100
17950;BME280;9100;48.700;9.316;2024-03-02T00:29:29;96552.9;;;7.38;100
17950;BME280;9100;48.700;9.316;2024-03-02T00:30:46;96561.3;;;7.38;100
17950;BME280;9100;48.700;9.316;2024-03-02T00:31:29;96562.09999999999;;;7.39;100
17950;BME280;9100;48.700;9.316;2024-03-02T00:32:35;96562.3;;;7.37;100
17950;BME280;9100;48.700;9.316;2024-03-02T00:33:32;96560.7;;;7.36;100
17950;BME280;9100;48.700;9.316;2024-03-02T00:33:36;96563.3;;;7.36;100
17950;BME280;9100;48.700;9.316;2024-03-02T00:34:29;96560.7;;;7.36;100
17950;BME280;9100;48.700;9.316;2024-03-02T00:35:29;96561.5;;;7.37;100
17950;BME280;9100;48.700;9.316;2024-03-02T00:36:29;96559.1;;;7.35;100
17950;BME280;9100;48.700;9.316;2024-03-02T00:37:29;96565.5;;;7.31;100
17950;BME280;9100;48.700;9.316;2024-03-02T00:38:29;96554.8;;;7.29;100
17950;BME280;9100;48.700;9.316;2024-03-02T00:38:40;96560.79999999999;;;7.28;100
17950;BME280;9100;48.700;9.316;2024-03-02T00:39:29;96560.2;;;7.26;100
17950;BME280;9100;48.700;9.316;2024-03-02T00:40:29;96562;;;7.25;100
17950;BME280;9100;48.700;9.316;2024-03-02T00:41:30;96567.3;;;7.24;100
17950;BME280;9100;48.700;9.316;2024-03-02T00:42:30;96550.40000000001;;;7.23;100
17950;BME280;9100;48.700;9.316;2024-03-02T00:43:38;96560.79999999999;;;7.21;100
17950;BME280;9100;48.700;9.316;2024-03-02T00:43:45;96561.6;;;7.22;100
17950;BME280;9100;48.700;9.316;2024-03-02T00:44:29;96564.5;;;7.19;100
17950;BME280;9100;48.700;9.316;2024-03-02T00:45:29;96561.90000000001;;;7.19;100
17950;BME280;9100;48.700;9.316;2024-03-02T00:46:30;96566.4;;;7.17;100
17950;BME280;9100;48.700;9.316;2024-03-02T00:47:29;96560.5;;;7.16;100
17950;BME280;9100;48.700;9.316;2024-03-02T00:48:29;96559.79999999999;;;7.16;100
17950;BME280;9100;48.700;9.316;2024-03-02T00:48:36;96558;;;7.16;100
17950;BME280;9100;48.700;9.316;2024-03-02T00:49:29;96558;;;7.16;100
17950;BME280;9100;48.700;9.316;2024-03-02T00:50:29;96554.7;;;7.16;100
17950;BME280;9100;48.700;9.316;2024-03-02T00:51:30;96561.3;;;7.17;100
17950;BME280;9100;48.700;9.316;2024-03-02T00:52:29;96557;;;7.17;100
17950;BME280;9100;48.700;9.316;2024-03-02T00:53:29;96551.3;;;7.15;100
17950;BME280;9100;48.700;9.316;2024-03-02T00:53:36;96559.79999999999;;;7.16;100
17950;BME280;9100;48.700;9.316;2024-03-02T00:54:29;96567.2;;;7.17;100
17950;BME280;9100;48.700;9.316;2024-03-02T00:55:29;96559.6;;;7.17;100
17950;BME280;9100;48.700;9.316;2024-03-02T00:56:29;96554.3;;;7.19;100
17950;BME280;9100;48.700;9.316;2024-03-02T00:57:29;96558.6;;;7.18;100
17950;BME280;9100;48.700;9.316;2024-03-02T00:58:29;96560.5;;;7.16;100
17950;BME280;9100;48.700;9.316;2024-03-02T00:58:36;96552.8;;;7.18;100
17950;BME280;9100;48.700;9.316;2024-03-02T00:59:29;96561.90000000001;;;7.19;100
17950;BME280;9100;48.700;9.316;2024-03-02T01:00:29;96557.8;;;7.18;100
17950;BME280;9100;48.700;9.316;2024-03-02T01:01:29;96553.3;;;7.2;100
17950;BME280;9100;48.700;9.316;2024-03-02T01:02:29;96555.9;;;7.2;100
17950;BME280;9100;48.700;9.316;2024-03-02T01:03:30;96555.9;;;7.2;100
17950;BME280;9100;48.700;9.316;2024-03-02T01:03:36;96551.8;;;7.19;100
17950;BME280;9100;48.700;9.316;2024-03-02T01:04:29;96552.4;;;7.21;100
17950;BME280;9100;48.700;9.316;2024-03-02T01:05:29;96552.4;;;7.21;100
17950;BME280;9100;48.700;9.316;2024-03-02T01:06:30;96546.7;;;7.19;100
17950;BME280;9100;48.700;9.316;2024-03-02T01:07:30;96551.8;;;7.19;100
17950;BME280;9100;48.700;9.316;2024-03-02T01:08:29;96550.2;;;7.18;100
17950;BME280;9100;48.700;9.316;2024-03-02T01:08:36;96548.40000000001;;;7.18;100
17950;BME280;9100;48.700;9.316;2024-03-02T01:09:29;96556.8;;;7.19;100
17950;BME280;9100;48.700;9.316;2024-03-02T01:10:29;96555.3;;;7.18;100
17950;BME280;9100;48.700;9.316;2024-03-02T01:11:29;96558.6;;;7.18;100
17950;BME280;9100;48.700;9.316;2024-03-02T01:12:29;96554.3;;;7.19;100
17950;BME280;9100;48.700;9.316;2024-03-02T01:13:29;96555.3;;;7.18;100
17950;BME280;9100;48.700;9.316;2024-03-02T01:13:36;96547.7;;;7.18;100
17950;BME280;9100;48.700;9.316;2024-03-02T01:14:29;96551.8;;;7.19;100
17950;BME280;9100;48.700;9.316;2024-03-02T01:15:29;96554.5;;;7.17;100
17950;BME280;9100;48.700;9.316;2024-03-02T01:16:29;96553.9;;;7.15;100
17950;BME280;9100;48.700;9.316;2024-03-02T01:17:29;96558.2;;;7.15;100
17950;BME280;9100;48.700;9.316;2024-03-02T01:18:29;96557.4;;;7.14;100
17950;BME280;9100;48.700;9.316;2024-03-02T01:18:36;96550;;;7.13;100
17950;BME280;9100;48.700;9.316;2024-03-02T01:19:29;96553.09999999999;;;7.15;100
17950;BME280;9100;48.700;9.316;2024-03-02T01:20:29;96550.5;;;7.15;100
17950;BME280;9100;48.700;9.316;2024-03-02T01:21:29;96549.59999999999;;;7.16;100
17950;BME280;9100;48.700;9.316;2024-03-02T01:22:29;96553.7;;;7.17;100
17950;BME280;9100;48.700;9.316;2024-03-02T01:23:29;96547.79999999999;;;7.16;100
17950;BME280;9100;48.700;9.316;2024-03-02T01:23:36;96552;;;7.17;100
17950;BME280;9100;48.700;9.316;2024-03-02T01:24:29;96552.8;;;7.18;100
17950;BME280;9100;48.700;9.316;2024-03-02T01:25:29;96547.7;;;7.18;100
17950;BME280;9100;48.700;9.316;2024-03-02T01:26:29;96552.8;;;7.18;100
17950;BME280;9100;48.700;9.316;2024-03-02T01:27:29;96549.2;;;7.19;100
17950;BME280;9100;48.700;9.316;2024-03-02T01:28:29;96553.5;;;7.18;100
17950;BME280;9100;48.700;9.316;2024-03-02T01:28:36;96556.1;;;7.18;100
17950;BME280;9100;48.700;9.316;2024-03-02T01:29:29;96551.59999999999;;;7.2;100
17950;BME280;9100;48.700;9.316;2024-03-02T01:30:29;96557.5;;;7.21;100
17950;BME280;9100;48.700;9.316;2024-03-02T01:31:29;96550.8;;;7.2;100
17950;BME280;9100;48.700;9.316;2024-03-02T01:32:29;96552.8;;;7.18;100
17950;BME280;9100;48.700;9.316;2024-03-02T01:33:29;96558.2;;;7.15;100
17950;BME280;9100;48.700;9.316;2024-03-02T01:33:36;96557.4;;;7.14;100
17950;BME280;9100;48.700;9.316;2024-03-02T01:34:29;96560.90000000001;;;7.13;100
17950;BME280;9100;48.700;9.316;2024-03-02T01:35:29;96546.8;;;7.11;100
17950;BME280;9100;48.700;9.316;2024-03-02T01:36:29;96552.9;;;7.1;100
17950;BME280;9100;48.700;9.316;2024-03-02T01:37:29;96549.5;;;7.09;100
17950;BME280;9100;48.700;9.316;2024-03-02T01:38:29;96550.7;;;7.07;100
17950;BME280;9100;48.700;9.316;2024-03-02T01:38:36;96551.70000000001;;;7.06;100
17950;BME280;9100;48.700;9.316;2024-03-02T01:39:29;96553.2;;;7.07;100
17950;BME280;9100;48.700;9.316;2024-03-02T01:40:29;96548.7;;;7.02;100
17950;BME280;9100;48.700;9.316;2024-03-02T01:41:29;96548.90000000001;;;7.01;100
17950;BME280;9100;48.700;9.316;2024-03-02T01:42:29;96547.5;;;6.98;100
17950;BME280;9100;48.700;9.316;2024-03-02T01:43:29;96539.59999999999;;;6.93;100
17950;BME280;9100;48.700;9.316;2024-03-02T01:43:36;96547.2;;;6.93;100
17950;BME280;9100;48.700;9.316;2024-03-02T01:44:29;96547.2;;;6.93;100
17950;BME280;9100;48.700;9.316;2024-03-02T01:45:29;96545.1;;;6.9;100
17950;BME280;9100;48.700;9.316;2024-03-02T01:46:29;96461.6;;;6.38;100
17950;BME280;9100;48.700;9.316;2024-03-02T01:47:29;96549.7;;;6.87;100
17950;BME280;9100;48.700;9.316;2024-03-02T01:48:29;96545;;;6.83;100
17950;BME280;9100;48.700;9.316;2024-03-02T01:48:36;96538.4;;;6.82;100
17950;BME280;9100;48.700;9.316;2024-03-02T01:49:29;96542.9;;;6.8;100
17950;BME280;9100;48.700;9.316;2024-03-02T01:50:30;96545.6;;;6.79;100
17950;BME280;9100;48.700;9.316;2024-03-02T01:51:29;96535.6;;;6.77;100
17950;BME280;9100;48.700;9.316;2024-03-02T01:52:29;96539.09999999999;;;6.76;100
17950;BME280;9100;48.700;9.316;2024-03-02T01:53:29;96545.3;;;6.74;100
17950;BME280;9100;48.700;9.316;2024-03-02T01:53:36;96535.2;;;6.74;100
17950;BME280;9100;48.700;9.316;2024-03-02T01:54:29;96536.90000000001;;;6.73;100
17950;BME280;9100;48.700;9.316;2024-03-02T01:55:29;96540.20000000001;;;6.74;100
17950;BME280;9100;48.700;9.316;2024-03-02T01:56:29;96532.8;;;6.72;100
17950;BME280;9100;48.700;9.316;2024-03-02T01:57:29;96534.6;;;6.72;100
17950;BME280;9100;48.700;9.316;2024-03-02T01:58:29;96529.7;;;6.7;100
17950;BME280;9100;48.700;9.316;2024-03-02T01:58:36;96434.1;;;6.06;100
17950;BME280;9100;48.700;9.316;2024-03-02T01:59:29;96535.5;;;6.71;100
17950;BME280;9100;48.700;9.316;2024-03-02T02:00:29;96530.4;;;6.71;100
17950;BME280;9100;48.700;9.316;2024-03-02T02:01:29;96531.2;;;6.71;100
17950;BME280;9100;48.700;9.316;2024-03-02T02:02:29;96532.8;;;6.72;100
17950;BME280;9100;48.700;9.316;2024-03-02T02:03:29;96531.2;;;6.71;100
17950;BME280;9100;48.700;9.316;2024-03-02T02:03:36;96529.3;;;6.73;100
17950;BME280;9100;48.700;9.316;2024-03-02T02:04:29;96526.8;;;6.73;100
17950;BME280;9100;48.700;9.316;2024-03-02T02:05:30;96526.59999999999;;;6.75;100
17950;BME280;9100;48.700;9.316;2024-03-02T02:06:29;96526.4;;;6.76;100
17950;BME280;9100;48.700;9.316;2024-03-02T02:07:29;96526.2;;;6.78;100
17950;BME280;9100;48.700;9.316;2024-03-02T02:08:29;96528;;;6.77;100
17950;BME280;9100;48.700;9.316;2024-03-02T02:08:36;96532.1;;;6.78;100
17950;BME280;9100;48.700;9.316;2024-03-02T02:09:29;96527;;;6.78;100
17950;BME280;9100;48.700;9.316;2024-03-02T02:10:29;96519.4;;;6.78;100
17950;BME280;9100;48.700;9.316;2024-03-02T02:11:29;96526.8;;;6.8;100
17950;BME280;9100;48.700;9.316;2024-03-02T02:12:29;96530.2;;;6.8;100
17950;BME280;9100;48.700;9.316;2024-03-02T02:13:29;96527;;;6.78;100
17950;BME280;9100;48.700;9.316;2024-03-02T02:13:36;96524.5;;;6.78;100
17950;BME280;9100;48.700;9.316;2024-03-02T02:14:29;96523.5;;;6.79;100
17950;BME280;9100;48.700;9.316;2024-03-02T02:15:29;96524.3;;;6.8;100
17950;BME280;9100;48.700;9.316;2024-03-02T02:16:29;96521.5;;;6.81;100
17950;BME280;9100;48.700;9.316;2024-03-02T02:17:29;96522.5;;;6.8;100
17950;BME280;9100;48.700;9.316;2024-03-02T02:18:29;96525.09999999999;;;6.8;100
17950;BME280;9100;48.700;9.316;2024-03-02T02:18:36;96520;;;6.8;100
17950;BME280;9100;48.700;9.316;2024-03-02T02:19:29;96522.29999999999;;;6.82;100
17950;BME280;9100;48.700;9.316;2024-03-02T02:20:29;96523.1;;;6.82;100
17950;BME280;9100;48.700;9.316;2024-03-02T02:21:29;96524.90000000001;;;6.82;100
17950;BME280;9100;48.700;9.316;2024-03-02T02:22:29;96514.70000000001;;;6.82;100
17950;BME280;9100;48.700;9.316;2024-03-02T02:23:29;96515.7;;;6.81;100
17950;BME280;9100;48.700;9.316;2024-03-02T02:23:36;96516.5;;;6.81;100
17950;BME280;9100;48.700;9.316;2024-03-02T02:24:29;96520.8;;;6.81;100
17950;BME280;9100;48.700;9.316;2024-03-02T02:25:29;96523.1;;;6.82;100
17950;BME280;9100;48.700;9.316;2024-03-02T02:26:29;96514.9;;;6.8;100
17950;BME280;9100;48.700;9.316;2024-03-02T02:27:29;96517.5;;;6.8;100
17950;BME280;9100;48.700;9.316;2024-03-02T02:28:29;96519.2;;;6.8;100
17950;BME280;9100;48.700;9.316;2024-03-02T02:28:36;96515.9;;;6.79;100
17950;BME280;9100;48.700;9.316;2024-03-02T02:29:29;96522.5;;;6.8;100
17950;BME280;9100;48.700;9.316;2024-03-02T02:30:30;96520;;;6.8;100
17950;BME280;9100;48.700;9.316;2024-03-02T02:31:36;96515.9;;;6.79;100
17950;BME280;9100;48.700;9.316;2024-03-02T02:32:29;96517.6;;;6.79;100
17950;BME280;9100;48.700;9.316;2024-03-02T02:33:29;96509.40000000001;;;6.77;100
17950;BME280;9100;48.700;9.316;2024-03-02T02:33:38;96518.6;;;6.78;100
17950;BME280;9100;48.700;9.316;2024-03-02T02:34:29;96516.8;;;6.78;100
17950;BME280;9100;48.700;9.316;2024-03-02T02:35:29;96511.7;;;6.78;100
17950;BME280;9100;48.700;9.316;2024-03-02T02:36:29;96514.9;;;6.8;100
17950;BME280;9100;48.700;9.316;2024-03-02T02:37:29;96517.8;;;6.77;100
17950;BME280;9100;48.700;9.316;2024-03-02T02:38:29;96516;;;6.78;100
17950;BME280;9100;48.700;9.316;2024-03-02T02:38:38;96521.90000000001;;;6.78;100
17950;BME280;9100;48.700;9.316;2024-03-02T02:39:29;96516.8;;;6.78;100
17950;BME280;9100;48.700;9.316;2024-03-02T02:40:29;96514.9;;;6.8;100
17950;BME280;9100;48.700;9.316;2024-03-02T02:41:29;96511;;;6.78;100
17950;BME280;9100;48.700;9.316;2024-03-02T02:42:29;96516.8;;;6.78;100
17950;BME280;9100;48.700;9.316;2024-03-02T02:43:29;96520.3;;;6.77;100
17950;BME280;9100;48.700;9.316;2024-03-02T02:43:36;96522.29999999999;;;6.75;100
17950;BME280;9100;48.700;9.316;2024-03-02T02:44:29;96519.6;;;6.77;100
17950;BME280;9100;48.700;9.316;2024-03-02T02:45:29;96524.59999999999;;;6.77;100
17950;BME280;9100;48.700;9.316;2024-03-02T02:46:29;96513.7;;;6.76;100
17950;BME280;9100;48.700;9.316;2024-03-02T02:47:29;96514.70000000001;;;6.75;100
17950;BME280;9100;48.700;9.316;2024-03-02T02:48:30;96509.6;;;6.75;100
17950;BME280;9100;48.700;9.316;2024-03-02T02:48:36;96503.9;;;6.73;100
17950;BME280;9100;48.700;9.316;2024-03-02T02:49:29;96510.5;;;6.74;100
17950;BME280;9100;48.700;9.316;2024-03-02T02:50:29;96506.2;;;6.75;100
17950;BME280;9100;48.700;9.316;2024-03-02T02:51:29;96503.09999999999;;;6.73;100
17950;BME280;9100;48.700;9.316;2024-03-02T02:52:31;96502.3;;;6.72;100
17950;BME280;9100;48.700;9.316;2024-03-02T02:53:29;96511.7;;;6.72;100
17950;BME280;9100;48.700;9.316;2024-03-02T02:53:36;96503.3;;;6.71;100
17950;BME280;9100;48.700;9.316;2024-03-02T02:54:29;96501.5;;;6.72;100
17950;BME280;9100;48.700;9.316;2024-03-02T02:55:29;96507.4;;;6.72;100
17950;BME280;9100;48.700;9.316;2024-03-02T02:56:29;96500.8;;;6.71;100
17950;BME280;9100;48.700;9.316;2024-03-02T02:57:29;96506;;;6.7;100
17950;BME280;9100;48.700;9.316;2024-03-02T02:58:29;96506.2;;;6.68;100
17950;BME280;9100;48.700;9.316;2024-03-02T02:58:36;96502.09999999999;;;6.67;100
17950;BME280;9100;48.700;9.316;2024-03-02T02:59:29;96502.70000000001;;;6.69;100
17950;BME280;9100;48.700;9.316;2024-03-02T03:00:29;96502.70000000001;;;6.69;100
17950;BME280;9100;48.700;9.316;2024-03-02T03:01:29;96505.2;;;6.69;100
17950;BME280;9100;48.700;9.316;2024-03-02T03:02:29;96509.7;;;6.67;100
17950;BME280;9100;48.700;9.316;2024-03-02T03:03:29;96505;;;6.64;100
17950;BME280;9100;48.700;9.316;2024-03-02T03:03:36;96510.1;;;6.64;100
17950;BME280;9100;48.700;9.316;2024-03-02T03:04:29;96509.3;;;6.64;100
17950;BME280;9100;48.700;9.316;2024-03-02T03:05:29;96506.9;;;6.62;100
17950;BME280;9100;48.700;9.316;2024-03-02T03:06:29;96510.40000000001;;;6.61;100
17950;BME280;9100;48.700;9.316;2024-03-02T03:07:29;96509.6;;;6.61;100
17950;BME280;9100;48.700;9.316;2024-03-02T03:08:29;96511.6;;;6.59;100
17950;BME280;9100;48.700;9.316;2024-03-02T03:08:36;96505.7;;;6.58;100
17950;BME280;9100;48.700;9.316;2024-03-02T03:09:29;96510;;;6.58;100
17950;BME280;9100;48.700;9.316;2024-03-02T03:10:29;96508.4;;;6.57;100
17950;BME280;9100;48.700;9.316;2024-03-02T03:11:29;96507.6;;;6.56;100
17950;BME280;9100;48.700;9.316;2024-03-02T03:12:29;96505.9;;;6.57;100
17950;BME280;9100;48.700;9.316;2024-03-02T03:13:29;96505.3;;;6.55;100
17950;BME280;9100;48.700;9.316;2024-03-02T03:13:36;96507;;;6.54;100
17950;BME280;9100;48.700;9.316;2024-03-02T03:14:29;96506.1;;;6.55;100
17950;BME280;9100;48.700;9.316;2024-03-02T03:15:29;96509.6;;;6.54;100
17950;BME280;9100;48.700;9.316;2024-03-02T03:16:29;96505.5;;;6.53;100
17950;BME280;9100;48.700;9.316;2024-03-02T03:17:29;96504.5;;;6.54;100
17950;BME280;9100;48.700;9.316;2024-03-02T03:18:29;96498.6;;;6.54;100
17950;BME280;9100;48.700;9.316;2024-03-02T03:18:36;96502.9;;;6.53;100
17950;BME280;9100;48.700;9.316;2024-03-02T03:19:29;96507.6;;;6.56;100
17950;BME280;9100;48.700;9.316;2024-03-02T03:20:29;96506.8;;;6.56;100
17950;BME280;9100;48.700;9.316;2024-03-02T03:21:29;96509.40000000001;;;6.56;100
17950;BME280;9100;48.700;9.316;2024-03-02T03:22:29;96509.40000000001;;;6.56;100
17950;BME280;9100;48.700;9.316;2024-03-02T03:23:29;96511;;;6.57;100
17950;BME280;9100;48.700;9.316;2024-03-02T03:23:36;96507.6;;;6.56;100
17950;BME280;9100;48.700;9.316;2024-03-02T03:24:29;96511.8;;;6.57;100
17950;BME280;9100;48.700;9.316;2024-03-02T03:25:29;96511.8;;;6.57;100
17950;BME280;9100;48.700;9.316;2024-03-02T03:26:29;96508.3;;;6.58;100
17950;BME280;9100;48.700;9.316;2024-03-02T03:27:29;96514.3;;;6.57;100
17950;BME280;9100;48.700;9.316;2024-03-02T03:28:29;96514.3;;;6.57;100
17950;BME280;9100;48.700;9.316;2024-03-02T03:28:36;96519.4;;;6.57;100
17950;BME280;9100;48.700;9.316;2024-03-02T03:29:29;96512.5;;;6.58;100
17950;BME280;9100;48.700;9.316;2024-03-02T03:30:29;96514.3;;;6.57;100
17950;BME280;9100;48.700;9.316;2024-03-02T03:31:29;96520.2;;;6.58;100
17950;BME280;9100;48.700;9.316;2024-03-02T03:32:29;96516.6;;;6.59;100
17950;BME280;9100;48.700;9.316;2024-03-02T03:33:29;96516.8;;;6.57;100
17950;BME280;9100;48.700;9.316;2024-03-02T03:33:36;96514.3;;;6.57;100
17950;BME280;9100;48.700;9.316;2024-03-02T03:34:29;96509.2;;;6.57;100
17950;BME280;9100;48.700;9.316;2024-03-02T03:35:29;96516;;;6.57;100
17950;BME280;9100;48.700;9.316;2024-03-02T03:36:29;96521.3;;;6.55;100
17950;BME280;9100;48.700;9.316;2024-03-02T03:37:29;96521.90000000001;;;6.57;100
17950;BME280;9100;48.700;9.316;2024-03-02T03:38:29;96526.4;;;6.55;100
17950;BME280;9100;48.700;9.316;2024-03-02T03:38:36;96516.2;;;6.55;100
17950;BME280;9100;48.700;9.316;2024-03-02T03:39:29;96523.1;;;6.55;100
17950;BME280;9100;48.700;9.316;2024-03-02T03:40:29;96519.9;;;6.53;100
17950;BME280;9100;48.700;9.316;2024-03-02T03:41:29;96515.8;;;6.52;100
17950;BME280;9100;48.700;9.316;2024-03-02T03:42:29;96524.40000000001;;;6.51;100
17950;BME280;9100;48.700;9.316;2024-03-02T03:43:29;96518.1;;;6.47;100
17950;BME280;9100;48.700;9.316;2024-03-02T03:43:36;96526.5;;;6.47;100
17950;BME280;9100;48.700;9.316;2024-03-02T03:44:29;96526.8;;;6.44;100
17950;BME280;9100;48.700;9.316;2024-03-02T03:45:29;96524.7;;;6.41;100
17950;BME280;9100;48.700;9.316;2024-03-02T03:46:29;96524.2;;;6.38;100
17950;BME280;9100;48.700;9.316;2024-03-02T03:47:30;96527;;;6.36;100
17950;BME280;9100;48.700;9.316;2024-03-02T03:48:29;96522.90000000001;;;6.35;100
17950;BME280;9100;48.700;9.316;2024-03-02T03:48:36;96522.90000000001;;;6.35;100
17950;BME280;9100;48.700;9.316;2024-03-02T03:49:29;96523.8;;;6.34;100
17950;BME280;9100;48.700;9.316;2024-03-02T03:50:29;96523.8;;;6.34;100
17950;BME280;9100;48.700;9.316;2024-03-02T03:51:29;96523.7;;;6.36;100
17950;BME280;9100;48.700;9.316;2024-03-02T03:52:29;96522.1;;;6.34;100
17950;BME280;9100;48.700;9.316;2024-03-02T03:53:29;96524;;;6.32;100
17950;BME280;9100;48.700;9.316;2024-03-02T03:53:36;96522.2;;;6.33;100
17950;BME280;9100;48.700;9.316;2024-03-02T03:54:29;96526.4;;;6.34;100
17950;BME280;9100;48.700;9.316;2024-03-02T03:55:29;96521.3;;;6.34;100
17950;BME280;9100;48.700;9.316;2024-03-02T03:56:29;96519.1;;;6.31;100
17950;BME280;9100;48.700;9.316;2024-03-02T03:57:29;96516.7;;;6.29;100
17950;BME280;9100;48.700;9.316;2024-03-02T03:58:29;96516.3;;;6.26;100
17950;BME280;9100;48.700;9.316;2024-03-02T03:58:36;96517.9;;;6.27;100
17950;BME280;9100;48.700;9.316;2024-03-02T03:59:29;96523.1;;;6.25;100
17950;BME280;9100;48.700;9.316;2024-03-02T04:00:29;96519;;;6.24;100
17950;BME280;9100;48.700;9.316;2024-03-02T04:01:29;96528.4;;;6.24;100
17950;BME280;9100;48.700;9.316;2024-03-02T04:02:29;96522.7;;;6.22;100
17950;BME280;9100;48.700;9.316;2024-03-02T04:03:29;96522.1;;;6.2;100
17950;BME280;9100;48.700;9.316;2024-03-02T04:03:36;96526.4;;;6.19;100
17950;BME280;9100;48.700;9.316;2024-03-02T04:04:29;96519;;;6.18;100
17950;BME280;9100;48.700;9.316;2024-03-02T04:05:29;96517;;;6.2;100
17950;BME280;9100;48.700;9.316;2024-03-02T04:06:29;96519;;;6.18;100
17950;BME280;9100;48.700;9.316;2024-03-02T04:07:29;96510.7;;;6.16;100
17950;BME280;9100;48.700;9.316;2024-03-02T04:08:29;96516.8;;;6.15;100
17950;BME280;9100;48.700;9.316;2024-03-02T04:08:36;96520.3;;;6.14;100
17950;BME280;9100;48.700;9.316;2024-03-02T04:09:29;96523.6;;;6.14;100
17950;BME280;9100;48.700;9.316;2024-03-02T04:10:29;96514.4;;;6.13;100
17950;BME280;9100;48.700;9.316;2024-03-02T04:11:29;96520.3;;;6.14;100
17950;BME280;9100;48.700;9.316;2024-03-02T04:12:29;96522;;;6.13;100
17950;BME280;9100;48.700;9.316;2024-03-02T04:13:29;96517.9;;;6.12;100
17950;BME280;9100;48.700;9.316;2024-03-02T04:13:36;96516.3;;;6.11;100
17950;BME280;9100;48.700;9.316;2024-03-02T04:14:29;96517.9;;;6.12;100
17950;BME280;9100;48.700;9.316;2024-03-02T04:15:29;96517.9;;;6.12;100
17950;BME280;9100;48.700;9.316;2024-03-02T04:16:29;96516.2;;;6.13;100
17950;BME280;9100;48.700;9.316;2024-03-02T04:17:31;96514.59999999999;;;6.12;100
17950;BME280;9100;48.700;9.316;2024-03-02T04:18:29;96516.5;;;6.1;100
17950;BME280;9100;48.700;9.316;2024-03-02T04:18:36;96517.3;;;6.1;100
17950;BME280;9100;48.700;9.316;2024-03-02T04:20:29;96516.5;;;6.1;100
17950;BME280;9100;48.700;9.316;2024-03-02T04:21:29;96516.3;;;6.11;100
17950;BME280;9100;48.700;9.316;2024-03-02T04:22:29;96521.6;;;6.1;100
17950;BME280;9100;48.700;9.316;2024-03-02T04:23:29;96521;;;6.08;100
17950;BME280;9100;48.700;9.316;2024-03-02T04:23:36;96513.4;;;6.08;100
17950;BME280;9100;48.700;9.316;2024-03-02T04:24:29;96522.6;;;6.09;100
17950;BME280;9100;48.700;9.316;2024-03-02T04:25:29;96518.5;;;6.08;100
17950;BME280;9100;48.700;9.316;2024-03-02T04:26:29;96513.4;;;6.08;100
17950;BME280;9100;48.700;9.316;2024-03-02T04:27:30;96518.5;;;6.08;100
17950;BME280;9100;48.700;9.316;2024-03-02T04:28:29;96521.90000000001;;;6.07;100
17950;BME280;9100;48.700;9.316;2024-03-02T04:28:36;96521.90000000001;;;6.07;100
17950;BME280;9100;48.700;9.316;2024-03-02T04:29:29;96523.5;;;6.08;100
17950;BME280;9100;48.700;9.316;2024-03-02T04:30:29;96514.3;;;6.07;100
17950;BME280;9100;48.700;9.316;2024-03-02T04:31:29;96519.4;;;6.07;100
17950;BME280;9100;48.700;9.316;2024-03-02T04:32:29;96518.8;;;6.05;100
17950;BME280;9100;48.700;9.316;2024-03-02T04:33:29;96519.8;;;6.04;100
17950;BME280;9100;48.700;9.316;2024-03-02T04:33:36;96509;;;6.02;100
17950;BME280;9100;48.700;9.316;2024-03-02T04:34:29;96512.5;;;6.01;100
17950;BME280;9100;48.700;9.316;2024-03-02T04:35:29;96515.09999999999;;;6.01;100
17950;BME280;9100;48.700;9.316;2024-03-02T04:36:29;96513.5;;;6;100
17950;BME280;9100;48.700;9.316;2024-03-02T04:37:29;96519.5;;;5.99;100
17950;BME280;9100;48.700;9.316;2024-03-02T04:38:29;96508.8;;;5.97;100
17950;BME280;9100;48.700;9.316;2024-03-02T04:38:36;96516.4;;;5.97;100
17950;BME280;9100;48.700;9.316;2024-03-02T04:39:29;96518;;;5.98;100